sensor_id;sensor_type;location;lat;lon;timestamp;P1;durP1;ratioP1;P2;durP2;ratioP2
57111;SDS011;42992;49.084;19.300;2022-09-09T00:04:37;5.70;;;3.53;;
57111;SDS011;42992;49.084;19.300;2022-09-09T00:07:09;5.05;;;3.50;;
57111;SDS011;42992;49.084;19.300;2022-09-09T00:48:18;2.50;;;1.50;;
57111;SDS011;42992;49.084;19.300;2022-09-09T07:13:50;3.28;;;2.00;;
57111;SDS011;42992;49.084;19.300;2022-09-09T07:16:17;6.80;;;2.50;;
57111;SDS011;42992;49.084;19.300;2022-09-09T07:18:43;5.82;;;2.33;;
57111;SDS011;42992;49.084;19.300;2022-09-09T07:21:11;5.40;;;2.85;;
57111;SDS011;42992;49.084;19.300;2022-09-09T07:23:38;6.05;;;2.70;;
57111;SDS011;42992;49.084;19.300;2022-09-09T07:26:13;7.03;;;2.10;;
57111;SDS011;42992;49.084;19.300;2022-09-09T07:31:42;4.80;;;1.98;;
57111;SDS011;42992;49.084;19.300;2022-09-09T07:34:19;2.70;;;1.40;;
57111;SDS011;42992;49.084;19.300;2022-09-09T07:36:49;3.58;;;1.83;;
57111;SDS011;42992;49.084;19.300;2022-09-09T07:39:19;4.55;;;2.55;;
57111;SDS011;42992;49.084;19.300;2022-09-09T07:41:46;4.82;;;2.10;;
57111;SDS011;42992;49.084;19.300;2022-09-09T07:44:16;4.30;;;1.95;;
57111;SDS011;42992;49.084;19.300;2022-09-09T07:46:44;4.13;;;2.03;;
57111;SDS011;42992;49.084;19.300;2022-09-09T07:49:12;10.65;;;4.00;;
57111;SDS011;42992;49.084;19.300;2022-09-09T07:51:41;4.78;;;2.92;;
57111;SDS011;42992;49.084;19.300;2022-09-09T07:54:18;3.88;;;2.50;;
57111;SDS011;42992;49.084;19.300;2022-09-09T07:56:53;4.80;;;2.30;;
57111;SDS011;42992;49.084;19.300;2022-09-09T07:59:18;6.85;;;2.20;;
57111;SDS011;42992;49.084;19.300;2022-09-09T08:01:48;7.20;;;2.83;;
57111;SDS011;42992;49.084;19.300;2022-09-09T08:04:14;5.15;;;2.20;;
57111;SDS011;42992;49.084;19.300;2022-09-09T08:06:42;4.30;;;2.10;;
57111;SDS011;42992;49.084;19.300;2022-09-09T08:09:08;4.78;;;1.90;;
57111;SDS011;42992;49.084;19.300;2022-09-09T08:11:34;3.67;;;2.00;;
57111;SDS011;42992;49.084;19.300;2022-09-09T08:14:01;4.88;;;2.00;;
57111;SDS011;42992;49.084;19.300;2022-09-09T08:16:31;3.58;;;1.70;;
57111;SDS011;42992;49.084;19.300;2022-09-09T08:18:57;4.57;;;1.70;;
57111;SDS011;42992;49.084;19.300;2022-09-09T08:21:23;3.55;;;2.00;;
57111;SDS011;42992;49.084;19.300;2022-09-09T08:23:50;4.65;;;1.75;;
57111;SDS011;42992;49.084;19.300;2022-09-09T08:26:21;4.20;;;1.70;;
57111;SDS011;42992;49.084;19.300;2022-09-09T08:28:47;4.72;;;1.60;;
57111;SDS011;42992;49.084;19.300;2022-09-09T08:31:17;5.13;;;1.70;;
57111;SDS011;42992;49.084;19.300;2022-09-09T08:33:43;3.97;;;1.42;;
57111;SDS011;42992;49.084;19.300;2022-09-09T08:36:14;3.35;;;1.50;;
57111;SDS011;42992;49.084;19.300;2022-09-09T08:38:40;3.65;;;1.80;;
57111;SDS011;42992;49.084;19.300;2022-09-09T08:43:50;3.57;;;1.60;;
57111;SDS011;42992;49.084;19.300;2022-09-09T08:46:23;2.33;;;1.30;;
57111;SDS011;42992;49.084;19.300;2022-09-09T08:51:17;3.67;;;1.90;;
57111;SDS011;42992;49.084;19.300;2022-09-09T08:53:44;2.85;;;1.50;;
57111;SDS011;42992;49.084;19.300;2022-09-09T08:56:12;6.00;;;1.95;;
57111;SDS011;42992;49.084;19.300;2022-09-09T08:58:48;4.60;;;1.58;;
57111;SDS011;42992;49.084;19.300;2022-09-09T09:11:45;3.67;;;1.35;;
57111;SDS011;42992;49.084;19.300;2022-09-09T09:14:19;3.05;;;1.30;;
57111;SDS011;42992;49.084;19.300;2022-09-09T09:17:05;2.85;;;1.23;;
57111;SDS011;42992;49.084;19.300;2022-09-09T09:19:32;2.70;;;1.20;;
57111;SDS011;42992;49.084;19.300;2022-09-09T09:24:27;2.17;;;1.10;;
57111;SDS011;42992;49.084;19.300;2022-09-09T09:26:53;2.20;;;1.20;;
57111;SDS011;42992;49.084;19.300;2022-09-09T09:29:19;1.95;;;1.02;;
57111;SDS011;42992;49.084;19.300;2022-09-09T09:31:48;5.50;;;1.50;;
57111;SDS011;42992;49.084;19.300;2022-09-09T09:34:16;2.20;;;1.30;;
57111;SDS011;42992;49.084;19.300;2022-09-09T09:36:58;1.92;;;1.02;;
57111;SDS011;42992;49.084;19.300;2022-09-09T09:39:28;2.83;;;1.50;;
57111;SDS011;42992;49.084;19.300;2022-09-09T09:41:54;1.70;;;0.90;;
57111;SDS011;42992;49.084;19.300;2022-09-09T09:44:23;2.65;;;1.00;;
57111;SDS011;42992;49.084;19.300;2022-09-09T09:46:49;1.83;;;0.80;;
57111;SDS011;42992;49.084;19.300;2022-09-09T09:49:15;1.65;;;0.85;;
57111;SDS011;42992;49.084;19.300;2022-09-09T09:51:40;1.45;;;0.80;;
57111;SDS011;42992;49.084;19.300;2022-09-09T09:54:48;2.13;;;1.40;;
57111;SDS011;42992;49.084;19.300;2022-09-09T09:56:54;4.10;;;1.00;;
57111;SDS011;42992;49.084;19.300;2022-09-09T10:01:48;1.75;;;0.80;;
57111;SDS011;42992;49.084;19.300;2022-09-09T10:04:23;2.58;;;1.05;;
57111;SDS011;42992;49.084;19.300;2022-09-09T10:09:21;2.17;;;1.10;;
57111;SDS011;42992;49.084;19.300;2022-09-09T10:11:51;3.20;;;1.20;;
57111;SDS011;42992;49.084;19.300;2022-09-09T10:27:03;1.80;;;1.05;;
57111;SDS011;42992;49.084;19.300;2022-09-09T10:37:25;3.55;;;1.05;;
57111;SDS011;42992;49.084;19.300;2022-09-09T10:39:55;2.00;;;1.10;;
57111;SDS011;42992;49.084;19.300;2022-09-09T10:42:26;1.88;;;1.00;;
57111;SDS011;42992;49.084;19.300;2022-09-09T10:53:02;2.17;;;1.20;;
57111;SDS011;42992;49.084;19.300;2022-09-09T10:55:39;4.25;;;1.20;;
57111;SDS011;42992;49.084;19.300;2022-09-09T10:58:08;1.95;;;1.20;;
57111;SDS011;42992;49.084;19.300;2022-09-09T11:03:03;3.15;;;1.70;;
57111;SDS011;42992;49.084;19.300;2022-09-09T11:05:44;2.00;;;1.08;;
57111;SDS011;42992;49.084;19.300;2022-09-09T11:15:50;3.70;;;1.40;;
57111;SDS011;42992;49.084;19.300;2022-09-09T11:18:20;4.15;;;1.33;;
57111;SDS011;42992;49.084;19.300;2022-09-09T11:20:48;3.75;;;1.10;;
57111;SDS011;42992;49.084;19.300;2022-09-09T11:23:19;1.92;;;1.08;;
57111;SDS011;42992;49.084;19.300;2022-09-09T11:25:57;5.18;;;1.20;;
57111;SDS011;42992;49.084;19.300;2022-09-09T11:31:30;3.03;;;1.10;;
57111;SDS011;42992;49.084;19.300;2022-09-09T11:34:03;3.10;;;1.40;;
57111;SDS011;42992;49.084;19.300;2022-09-09T11:44:15;2.78;;;1.20;;
57111;SDS011;42992;49.084;19.300;2022-09-09T11:46:41;3.20;;;1.15;;
57111;SDS011;42992;49.084;19.300;2022-09-09T11:52:34;2.55;;;1.17;;
57111;SDS011;42992;49.084;19.300;2022-09-09T11:55:20;2.85;;;1.00;;
57111;SDS011;42992;49.084;19.300;2022-09-09T12:00:41;1.80;;;1.00;;
57111;SDS011;42992;49.084;19.300;2022-09-09T12:05:53;2.03;;;1.05;;
57111;SDS011;42992;49.084;19.300;2022-09-09T12:08:24;4.00;;;1.50;;
57111;SDS011;42992;49.084;19.300;2022-09-09T12:10:56;3.22;;;1.00;;
57111;SDS011;42992;49.084;19.300;2022-09-09T12:13:26;4.15;;;0.82;;
57111;SDS011;42992;49.084;19.300;2022-09-09T12:16:43;2.15;;;1.05;;
57111;SDS011;42992;49.084;19.300;2022-09-09T12:19:22;2.08;;;1.10;;
57111;SDS011;42992;49.084;19.300;2022-09-09T12:22:01;3.20;;;1.10;;
57111;SDS011;42992;49.084;19.300;2022-09-09T12:24:39;2.92;;;1.65;;
57111;SDS011;42992;49.084;19.300;2022-09-09T12:27:19;2.00;;;1.05;;
57111;SDS011;42992;49.084;19.300;2022-09-09T12:30:01;1.55;;;0.88;;
57111;SDS011;42992;49.084;19.300;2022-09-09T12:32:27;1.70;;;0.82;;
57111;SDS011;42992;49.084;19.300;2022-09-09T12:37:33;4.45;;;1.00;;
57111;SDS011;42992;49.084;19.300;2022-09-09T12:40:01;2.97;;;1.02;;
57111;SDS011;42992;49.084;19.300;2022-09-09T12:42:28;4.45;;;1.00;;
57111;SDS011;42992;49.084;19.300;2022-09-09T12:44:57;2.15;;;1.23;;
57111;SDS011;42992;49.084;19.300;2022-09-09T12:50:00;1.60;;;0.90;;
57111;SDS011;42992;49.084;19.300;2022-09-09T12:52:30;3.22;;;1.10;;
57111;SDS011;42992;49.084;19.300;2022-09-09T12:54:57;4.55;;;1.20;;
57111;SDS011;42992;49.084;19.300;2022-09-09T12:57:23;3.08;;;1.15;;
57111;SDS011;42992;49.084;19.300;2022-09-09T12:59:52;2.03;;;1.20;;
57111;SDS011;42992;49.084;19.300;2022-09-09T13:04:43;3.27;;;1.00;;
57111;SDS011;42992;49.084;19.300;2022-09-09T13:07:10;1.95;;;1.10;;
57111;SDS011;42992;49.084;19.300;2022-09-09T13:09:42;4.03;;;1.40;;
57111;SDS011;42992;49.084;19.300;2022-09-09T13:12:10;2.55;;;1.10;;
57111;SDS011;42992;49.084;19.300;2022-09-09T13:14:38;4.22;;;1.15;;
57111;SDS011;42992;49.084;19.300;2022-09-09T13:17:04;3.13;;;1.20;;
57111;SDS011;42992;49.084;19.300;2022-09-09T13:19:31;2.50;;;1.17;;
57111;SDS011;42992;49.084;19.300;2022-09-09T13:21:57;4.10;;;1.23;;
57111;SDS011;42992;49.084;19.300;2022-09-09T13:24:27;3.05;;;1.30;;
57111;SDS011;42992;49.084;19.300;2022-09-09T13:27:04;2.38;;;1.30;;
57111;SDS011;42992;49.084;19.300;2022-09-09T13:29:30;4.07;;;1.40;;
57111;SDS011;42992;49.084;19.300;2022-09-09T13:32:06;2.63;;;1.30;;
57111;SDS011;42992;49.084;19.300;2022-09-09T13:34:33;3.45;;;1.58;;
57111;SDS011;42992;49.084;19.300;2022-09-09T13:37:00;4.90;;;2.80;;
57111;SDS011;42992;49.084;19.300;2022-09-09T13:39:30;3.72;;;2.00;;
57111;SDS011;42992;49.084;19.300;2022-09-09T13:41:57;3.72;;;2.20;;
57111;SDS011;42992;49.084;19.300;2022-09-09T13:46:58;3.85;;;1.90;;
57111;SDS011;42992;49.084;19.300;2022-09-09T13:49:24;3.33;;;1.88;;
57111;SDS011;42992;49.084;19.300;2022-09-09T13:52:02;4.00;;;1.60;;
57111;SDS011;42992;49.084;19.300;2022-09-09T13:54:27;2.67;;;1.35;;
57111;SDS011;42992;49.084;19.300;2022-09-09T13:56:52;4.17;;;1.37;;
57111;SDS011;42992;49.084;19.300;2022-09-09T13:59:20;4.07;;;1.50;;
57111;SDS011;42992;49.084;19.300;2022-09-09T14:01:46;2.40;;;1.10;;
57111;SDS011;42992;49.084;19.300;2022-09-09T14:04:11;2.50;;;1.38;;
57111;SDS011;42992;49.084;19.300;2022-09-09T14:06:37;2.72;;;1.38;;
57111;SDS011;42992;49.084;19.300;2022-09-09T14:09:03;5.97;;;1.90;;
57111;SDS011;42992;49.084;19.300;2022-09-09T14:11:28;4.57;;;1.58;;
57111;SDS011;42992;49.084;19.300;2022-09-09T14:13:54;2.65;;;1.50;;
57111;SDS011;42992;49.084;19.300;2022-09-09T14:16:19;3.50;;;1.88;;
57111;SDS011;42992;49.084;19.300;2022-09-09T14:18:46;3.40;;;1.58;;
57111;SDS011;42992;49.084;19.300;2022-09-09T14:21:12;5.10;;;3.05;;
57111;SDS011;42992;49.084;19.300;2022-09-09T14:23:37;3.03;;;1.60;;
57111;SDS011;42992;49.084;19.300;2022-09-09T14:26:03;5.65;;;3.08;;
57111;SDS011;42992;49.084;19.300;2022-09-09T14:28:28;4.05;;;2.33;;
57111;SDS011;42992;49.084;19.300;2022-09-09T14:30:54;4.65;;;2.90;;
57111;SDS011;42992;49.084;19.300;2022-09-09T14:33:19;4.25;;;2.35;;
57111;SDS011;42992;49.084;19.300;2022-09-09T14:35:45;4.30;;;2.50;;
57111;SDS011;42992;49.084;19.300;2022-09-09T14:38:10;3.90;;;1.80;;
57111;SDS011;42992;49.084;19.300;2022-09-09T14:40:36;3.30;;;1.63;;
57111;SDS011;42992;49.084;19.300;2022-09-09T14:43:01;4.22;;;1.65;;
57111;SDS011;42992;49.084;19.300;2022-09-09T14:45:27;3.17;;;1.75;;
57111;SDS011;42992;49.084;19.300;2022-09-09T14:47:53;4.00;;;1.52;;
57111;SDS011;42992;49.084;19.300;2022-09-09T14:50:19;4.80;;;2.95;;
57111;SDS011;42992;49.084;19.300;2022-09-09T14:52:44;3.40;;;1.70;;
57111;SDS011;42992;49.084;19.300;2022-09-09T14:55:09;3.97;;;1.75;;
57111;SDS011;42992;49.084;19.300;2022-09-09T14:57:36;4.03;;;1.52;;
57111;SDS011;42992;49.084;19.300;2022-09-09T15:00:02;4.25;;;1.55;;
57111;SDS011;42992;49.084;19.300;2022-09-09T15:02:28;5.10;;;1.50;;
57111;SDS011;42992;49.084;19.300;2022-09-09T15:04:55;4.90;;;2.25;;
57111;SDS011;42992;49.084;19.300;2022-09-09T15:07:22;3.22;;;1.60;;
57111;SDS011;42992;49.084;19.300;2022-09-09T15:09:47;3.03;;;1.45;;
57111;SDS011;42992;49.084;19.300;2022-09-09T15:12:13;3.65;;;1.80;;
57111;SDS011;42992;49.084;19.300;2022-09-09T15:14:39;3.22;;;1.73;;
57111;SDS011;42992;49.084;19.300;2022-09-09T15:17:04;3.63;;;1.77;;
57111;SDS011;42992;49.084;19.300;2022-09-09T15:19:29;4.63;;;1.70;;
57111;SDS011;42992;49.084;19.300;2022-09-09T15:21:55;3.13;;;1.40;;
57111;SDS011;42992;49.084;19.300;2022-09-09T15:24:20;2.70;;;1.60;;
57111;SDS011;42992;49.084;19.300;2022-09-09T15:26:46;3.20;;;1.70;;
57111;SDS011;42992;49.084;19.300;2022-09-09T15:29:11;4.22;;;1.60;;
57111;SDS011;42992;49.084;19.300;2022-09-09T15:31:36;2.88;;;1.38;;
57111;SDS011;42992;49.084;19.300;2022-09-09T15:34:03;3.30;;;1.48;;
57111;SDS011;42992;49.084;19.300;2022-09-09T15:38:54;3.03;;;1.60;;
57111;SDS011;42992;49.084;19.300;2022-09-09T15:41:20;3.50;;;1.70;;
57111;SDS011;42992;49.084;19.300;2022-09-09T15:43:46;3.00;;;1.70;;
57111;SDS011;42992;49.084;19.300;2022-09-09T15:48:55;4.18;;;1.45;;
57111;SDS011;42992;49.084;19.300;2022-09-09T15:51:21;3.35;;;1.30;;
57111;SDS011;42992;49.084;19.300;2022-09-09T15:53:48;2.67;;;1.48;;
57111;SDS011;42992;49.084;19.300;2022-09-09T15:56:13;2.83;;;1.48;;
57111;SDS011;42992;49.084;19.300;2022-09-09T15:58:38;4.38;;;1.40;;
57111;SDS011;42992;49.084;19.300;2022-09-09T16:01:07;3.03;;;1.52;;
57111;SDS011;42992;49.084;19.300;2022-09-09T16:03:37;3.72;;;1.50;;
57111;SDS011;42992;49.084;19.300;2022-09-09T16:06:03;4.90;;;1.70;;
57111;SDS011;42992;49.084;19.300;2022-09-09T16:08:36;2.40;;;1.40;;
57111;SDS011;42992;49.084;19.300;2022-09-09T16:11:06;3.78;;;1.73;;
57111;SDS011;42992;49.084;19.300;2022-09-09T16:13:38;3.10;;;1.70;;
57111;SDS011;42992;49.084;19.300;2022-09-09T16:16:04;2.92;;;1.50;;
57111;SDS011;42992;49.084;19.300;2022-09-09T16:18:37;2.45;;;1.30;;
57111;SDS011;42992;49.084;19.300;2022-09-09T16:21:03;4.20;;;1.80;;
57111;SDS011;42992;49.084;19.300;2022-09-09T16:23:30;5.13;;;1.77;;
57111;SDS011;42992;49.084;19.300;2022-09-09T16:25:55;3.42;;;1.60;;
57111;SDS011;42992;49.084;19.300;2022-09-09T16:28:21;4.68;;;2.17;;
57111;SDS011;42992;49.084;19.300;2022-09-09T16:30:47;4.20;;;2.20;;
57111;SDS011;42992;49.084;19.300;2022-09-09T16:33:12;4.05;;;2.17;;
57111;SDS011;42992;49.084;19.300;2022-09-09T16:35:39;3.13;;;1.90;;
57111;SDS011;42992;49.084;19.300;2022-09-09T16:38:05;5.38;;;2.10;;
57111;SDS011;42992;49.084;19.300;2022-09-09T16:40:33;3.97;;;2.17;;
57111;SDS011;42992;49.084;19.300;2022-09-09T16:42:59;5.57;;;2.75;;
57111;SDS011;42992;49.084;19.300;2022-09-09T16:45:24;8.63;;;2.40;;
57111;SDS011;42992;49.084;19.300;2022-09-09T16:47:50;4.38;;;2.22;;
57111;SDS011;42992;49.084;19.300;2022-09-09T16:50:15;5.65;;;2.72;;
57111;SDS011;42992;49.084;19.300;2022-09-09T16:52:40;5.20;;;3.30;;
57111;SDS011;42992;49.084;19.300;2022-09-09T16:55:05;5.50;;;3.10;;
57111;SDS011;42992;49.084;19.300;2022-09-09T16:57:31;5.30;;;3.40;;
57111;SDS011;42992;49.084;19.300;2022-09-09T16:59:56;4.35;;;2.20;;
57111;SDS011;42992;49.084;19.300;2022-09-09T17:02:24;6.85;;;2.53;;
57111;SDS011;42992;49.084;19.300;2022-09-09T17:04:49;3.22;;;1.80;;
57111;SDS011;42992;49.084;19.300;2022-09-09T17:07:17;6.50;;;2.00;;
57111;SDS011;42992;49.084;19.300;2022-09-09T17:09:44;4.47;;;2.40;;
57111;SDS011;42992;49.084;19.300;2022-09-09T17:12:10;7.50;;;2.42;;
57111;SDS011;42992;49.084;19.300;2022-09-09T17:14:37;6.68;;;4.00;;
57111;SDS011;42992;49.084;19.300;2022-09-09T17:17:02;5.78;;;2.47;;
57111;SDS011;42992;49.084;19.300;2022-09-09T17:19:29;12.23;;;8.35;;
57111;SDS011;42992;49.084;19.300;2022-09-09T17:21:54;12.73;;;10.73;;
57111;SDS011;42992;49.084;19.300;2022-09-09T17:24:21;6.10;;;2.97;;
57111;SDS011;42992;49.084;19.300;2022-09-09T17:26:47;6.82;;;2.50;;
57111;SDS011;42992;49.084;19.300;2022-09-09T17:29:12;4.53;;;1.83;;
57111;SDS011;42992;49.084;19.300;2022-09-09T17:31:37;6.30;;;3.90;;
57111;SDS011;42992;49.084;19.300;2022-09-09T17:34:03;8.27;;;4.88;;
57111;SDS011;42992;49.084;19.300;2022-09-09T17:36:31;5.72;;;3.15;;
57111;SDS011;42992;49.084;19.300;2022-09-09T17:38:57;7.35;;;2.80;;
57111;SDS011;42992;49.084;19.300;2022-09-09T17:41:26;8.98;;;4.50;;
57111;SDS011;42992;49.084;19.300;2022-09-09T17:43:52;6.60;;;3.70;;
57111;SDS011;42992;49.084;19.300;2022-09-09T17:46:19;5.75;;;3.63;;
57111;SDS011;42992;49.084;19.300;2022-09-09T17:48:47;7.75;;;2.80;;
57111;SDS011;42992;49.084;19.300;2022-09-09T17:51:21;5.28;;;2.42;;
57111;SDS011;42992;49.084;19.300;2022-09-09T17:53:52;8.63;;;3.20;;
57111;SDS011;42992;49.084;19.300;2022-09-09T17:56:20;5.88;;;3.20;;
57111;SDS011;42992;49.084;19.300;2022-09-09T17:58:46;8.75;;;5.75;;
57111;SDS011;42992;49.084;19.300;2022-09-09T18:01:13;8.05;;;3.85;;
57111;SDS011;42992;49.084;19.300;2022-09-09T18:03:39;13.23;;;4.60;;
57111;SDS011;42992;49.084;19.300;2022-09-09T18:06:08;5.95;;;3.00;;
57111;SDS011;42992;49.084;19.300;2022-09-09T18:08:34;7.93;;;4.68;;
57111;SDS011;42992;49.084;19.300;2022-09-09T18:10:59;4.25;;;2.83;;
57111;SDS011;42992;49.084;19.300;2022-09-09T18:13:25;4.53;;;2.90;;
57111;SDS011;42992;49.084;19.300;2022-09-09T18:15:51;7.82;;;3.33;;
57111;SDS011;42992;49.084;19.300;2022-09-09T18:18:16;5.10;;;2.97;;
57111;SDS011;42992;49.084;19.300;2022-09-09T18:20:41;5.07;;;2.70;;
57111;SDS011;42992;49.084;19.300;2022-09-09T18:23:08;4.38;;;2.60;;
57111;SDS011;42992;49.084;19.300;2022-09-09T18:25:37;7.55;;;2.85;;
57111;SDS011;42992;49.084;19.300;2022-09-09T18:28:02;5.38;;;2.95;;
57111;SDS011;42992;49.084;19.300;2022-09-09T18:30:28;5.53;;;3.08;;
57111;SDS011;42992;49.084;19.300;2022-09-09T18:32:55;5.60;;;3.25;;
57111;SDS011;42992;49.084;19.300;2022-09-09T18:35:21;7.88;;;2.72;;
57111;SDS011;42992;49.084;19.300;2022-09-09T18:37:46;5.25;;;2.80;;
57111;SDS011;42992;49.084;19.300;2022-09-09T18:40:11;4.50;;;2.90;;
57111;SDS011;42992;49.084;19.300;2022-09-09T18:42:37;4.72;;;2.78;;
57111;SDS011;42992;49.084;19.300;2022-09-09T18:45:02;5.03;;;3.00;;
57111;SDS011;42992;49.084;19.300;2022-09-09T18:47:27;10.15;;;3.33;;
57111;SDS011;42992;49.084;19.300;2022-09-09T18:49:53;6.25;;;3.20;;
57111;SDS011;42992;49.084;19.300;2022-09-09T18:52:18;7.55;;;3.03;;
57111;SDS011;42992;49.084;19.300;2022-09-09T18:54:43;6.07;;;3.10;;
57111;SDS011;42992;49.084;19.300;2022-09-09T18:57:10;9.15;;;2.72;;
57111;SDS011;42992;49.084;19.300;2022-09-09T18:59:35;4.53;;;2.70;;
57111;SDS011;42992;49.084;19.300;2022-09-09T19:02:01;5.00;;;2.60;;
57111;SDS011;42992;49.084;19.300;2022-09-09T19:04:26;5.85;;;2.42;;
57111;SDS011;42992;49.084;19.300;2022-09-09T19:06:51;3.58;;;2.08;;
57111;SDS011;42992;49.084;19.300;2022-09-09T19:09:23;6.32;;;2.40;;
57111;SDS011;42992;49.084;19.300;2022-09-09T19:11:49;4.63;;;2.17;;
57111;SDS011;42992;49.084;19.300;2022-09-09T19:14:15;4.05;;;2.45;;
57111;SDS011;42992;49.084;19.300;2022-09-09T19:16:40;4.03;;;2.42;;
57111;SDS011;42992;49.084;19.300;2022-09-09T19:19:13;9.15;;;3.00;;
57111;SDS011;42992;49.084;19.300;2022-09-09T19:21:40;7.72;;;2.80;;
57111;SDS011;42992;49.084;19.300;2022-09-09T19:24:08;6.03;;;2.75;;
57111;SDS011;42992;49.084;19.300;2022-09-09T19:26:36;5.18;;;2.70;;
57111;SDS011;42992;49.084;19.300;2022-09-09T19:29:05;5.85;;;2.75;;
57111;SDS011;42992;49.084;19.300;2022-09-09T19:31:30;4.57;;;3.10;;
57111;SDS011;42992;49.084;19.300;2022-09-09T19:33:56;5.22;;;3.25;;
57111;SDS011;42992;49.084;19.300;2022-09-09T19:36:22;5.65;;;2.92;;
57111;SDS011;42992;49.084;19.300;2022-09-09T19:38:47;7.47;;;3.13;;
57111;SDS011;42992;49.084;19.300;2022-09-09T19:41:14;6.00;;;2.90;;
57111;SDS011;42992;49.084;19.300;2022-09-09T19:43:40;5.75;;;3.00;;
57111;SDS011;42992;49.084;19.300;2022-09-09T19:46:06;7.03;;;2.60;;
57111;SDS011;42992;49.084;19.300;2022-09-09T19:48:33;3.97;;;2.50;;
57111;SDS011;42992;49.084;19.300;2022-09-09T19:51:03;4.45;;;2.53;;
57111;SDS011;42992;49.084;19.300;2022-09-09T19:53:34;10.00;;;2.67;;
57111;SDS011;42992;49.084;19.300;2022-09-09T19:56:00;5.22;;;2.70;;
57111;SDS011;42992;49.084;19.300;2022-09-09T19:58:27;5.40;;;3.05;;
57111;SDS011;42992;49.084;19.300;2022-09-09T20:00:52;6.38;;;2.30;;
57111;SDS011;42992;49.084;19.300;2022-09-09T20:03:18;5.80;;;2.95;;
57111;SDS011;42992;49.084;19.300;2022-09-09T20:05:43;4.68;;;3.17;;
57111;SDS011;42992;49.084;19.300;2022-09-09T20:08:08;11.13;;;3.38;;
57111;SDS011;42992;49.084;19.300;2022-09-09T20:10:34;5.70;;;2.95;;
57111;SDS011;42992;49.084;19.300;2022-09-09T20:12:59;8.07;;;2.80;;
57111;SDS011;42992;49.084;19.300;2022-09-09T20:15:24;6.93;;;2.80;;
57111;SDS011;42992;49.084;19.300;2022-09-09T20:17:50;5.65;;;2.95;;
57111;SDS011;42992;49.084;19.300;2022-09-09T20:20:16;7.07;;;3.03;;
57111;SDS011;42992;49.084;19.300;2022-09-09T20:22:41;5.78;;;3.30;;
57111;SDS011;42992;49.084;19.300;2022-09-09T20:25:06;5.55;;;3.38;;
57111;SDS011;42992;49.084;19.300;2022-09-09T20:27:32;8.65;;;3.25;;
57111;SDS011;42992;49.084;19.300;2022-09-09T20:29:57;6.57;;;3.47;;
57111;SDS011;42992;49.084;19.300;2022-09-09T20:32:23;5.18;;;3.25;;
57111;SDS011;42992;49.084;19.300;2022-09-09T20:34:48;7.05;;;3.15;;
57111;SDS011;42992;49.084;19.300;2022-09-09T20:37:14;7.00;;;2.75;;
57111;SDS011;42992;49.084;19.300;2022-09-09T20:39:39;5.70;;;2.60;;
57111;SDS011;42992;49.084;19.300;2022-09-09T20:42:04;6.97;;;3.30;;
57111;SDS011;42992;49.084;19.300;2022-09-09T20:44:30;7.97;;;3.13;;
57111;SDS011;42992;49.084;19.300;2022-09-09T20:46:55;3.92;;;2.50;;
57111;SDS011;42992;49.084;19.300;2022-09-09T20:49:24;3.72;;;2.50;;
57111;SDS011;42992;49.084;19.300;2022-09-09T20:51:50;7.68;;;2.95;;
57111;SDS011;42992;49.084;19.300;2022-09-09T20:54:20;3.28;;;2.08;;
57111;SDS011;42992;49.084;19.300;2022-09-09T20:56:47;4.88;;;2.65;;
57111;SDS011;42992;49.084;19.300;2022-09-09T20:59:15;6.70;;;2.25;;
57111;SDS011;42992;49.084;19.300;2022-09-09T21:01:41;7.68;;;2.83;;
57111;SDS011;42992;49.084;19.300;2022-09-09T21:04:06;5.45;;;2.95;;
57111;SDS011;42992;49.084;19.300;2022-09-09T21:06:33;5.55;;;2.80;;
57111;SDS011;42992;49.084;19.300;2022-09-09T21:08:58;7.80;;;2.80;;
57111;SDS011;42992;49.084;19.300;2022-09-09T21:11:23;8.07;;;2.92;;
57111;SDS011;42992;49.084;19.300;2022-09-09T21:13:48;7.20;;;2.80;;
57111;SDS011;42992;49.084;19.300;2022-09-09T21:16:16;11.35;;;3.30;;
57111;SDS011;42992;49.084;19.300;2022-09-09T21:18:45;8.30;;;3.10;;
57111;SDS011;42992;49.084;19.300;2022-09-09T21:21:10;6.70;;;3.00;;
57111;SDS011;42992;49.084;19.300;2022-09-09T21:23:35;4.20;;;2.50;;
57111;SDS011;42992;49.084;19.300;2022-09-09T21:26:01;7.18;;;3.13;;
57111;SDS011;42992;49.084;19.300;2022-09-09T21:28:26;5.18;;;3.25;;
57111;SDS011;42992;49.084;19.300;2022-09-09T21:30:52;6.80;;;3.03;;
57111;SDS011;42992;49.084;19.300;2022-09-09T21:33:19;8.27;;;3.10;;
57111;SDS011;42992;49.084;19.300;2022-09-09T21:35:44;7.97;;;3.70;;
57111;SDS011;42992;49.084;19.300;2022-09-09T21:38:12;5.00;;;2.95;;
57111;SDS011;42992;49.084;19.300;2022-09-09T21:40:37;5.65;;;2.92;;
57111;SDS011;42992;49.084;19.300;2022-09-09T21:43:03;6.38;;;2.70;;
57111;SDS011;42992;49.084;19.300;2022-09-09T21:45:29;4.88;;;2.80;;
57111;SDS011;42992;49.084;19.300;2022-09-09T21:47:54;6.85;;;3.25;;
57111;SDS011;42992;49.084;19.300;2022-09-09T21:50:20;4.80;;;2.40;;
57111;SDS011;42992;49.084;19.300;2022-09-09T21:52:46;3.92;;;2.60;;
57111;SDS011;42992;49.084;19.300;2022-09-09T21:55:11;4.97;;;2.42;;
57111;SDS011;42992;49.084;19.300;2022-09-09T21:57:36;3.30;;;2.20;;
57111;SDS011;42992;49.084;19.300;2022-09-09T22:00:03;6.10;;;3.30;;
57111;SDS011;42992;49.084;19.300;2022-09-09T22:02:29;4.95;;;3.10;;
57111;SDS011;42992;49.084;19.300;2022-09-09T22:04:54;4.97;;;2.97;;
57111;SDS011;42992;49.084;19.300;2022-09-09T22:07:20;3.53;;;2.45;;
57111;SDS011;42992;49.084;19.300;2022-09-09T22:09:45;4.13;;;2.40;;
57111;SDS011;42992;49.084;19.300;2022-09-09T22:12:10;4.30;;;2.50;;
57111;SDS011;42992;49.084;19.300;2022-09-09T22:14:36;4.93;;;2.20;;
57111;SDS011;42992;49.084;19.300;2022-09-09T22:17:01;3.95;;;2.20;;
57111;SDS011;42992;49.084;19.300;2022-09-09T22:19:27;5.15;;;2.10;;
57111;SDS011;42992;49.084;19.300;2022-09-09T22:21:52;4.28;;;1.65;;
57111;SDS011;42992;49.084;19.300;2022-09-09T22:24:17;3.25;;;1.45;;
57111;SDS011;42992;49.084;19.300;2022-09-09T22:26:42;4.55;;;1.70;;
57111;SDS011;42992;49.084;19.300;2022-09-09T22:29:08;3.05;;;1.48;;
57111;SDS011;42992;49.084;19.300;2022-09-09T22:31:33;3.03;;;1.33;;
57111;SDS011;42992;49.084;19.300;2022-09-09T22:33:59;3.78;;;1.52;;
57111;SDS011;42992;49.084;19.300;2022-09-09T22:36:25;2.72;;;1.35;;
57111;SDS011;42992;49.084;19.300;2022-09-09T22:38:50;3.90;;;1.88;;
57111;SDS011;42992;49.084;19.300;2022-09-09T22:41:16;4.60;;;1.58;;
57111;SDS011;42992;49.084;19.300;2022-09-09T22:43:42;2.50;;;1.30;;
57111;SDS011;42992;49.084;19.300;2022-09-09T22:46:08;3.95;;;1.60;;
57111;SDS011;42992;49.084;19.300;2022-09-09T22:48:34;3.55;;;1.80;;
57111;SDS011;42992;49.084;19.300;2022-09-09T22:51:07;5.53;;;1.80;;
57111;SDS011;42992;49.084;19.300;2022-09-09T22:53:39;3.92;;;1.67;;
57111;SDS011;42992;49.084;19.300;2022-09-09T22:56:06;6.80;;;2.20;;
57111;SDS011;42992;49.084;19.300;2022-09-09T22:58:32;6.22;;;2.15;;
57111;SDS011;42992;49.084;19.300;2022-09-09T23:00:58;6.35;;;1.98;;
57111;SDS011;42992;49.084;19.300;2022-09-09T23:03:28;4.75;;;2.22;;
57111;SDS011;42992;49.084;19.300;2022-09-09T23:05:54;5.80;;;3.05;;
57111;SDS011;42992;49.084;19.300;2022-09-09T23:08:21;4.32;;;2.00;;
57111;SDS011;42992;49.084;19.300;2022-09-09T23:10:47;5.93;;;2.33;;
57111;SDS011;42992;49.084;19.300;2022-09-09T23:13:13;6.43;;;2.50;;
57111;SDS011;42992;49.084;19.300;2022-09-09T23:15:38;5.50;;;2.30;;
